Terminal Aerodrome Forecast
Issued by NWS Paducah, KY

Home | Current Version | Previous Version | Text Only | Print | Product List | Glossary On
Versions: 1 2 3 4 5 6 7 8 9 10 11 12 13 14
000
FTUS43 KPAH 221120
TAFPAH
TAF
KPAH 221120Z 2212/2312 24007KT P6SM SCT035 SCT150
     FM221500 26012G18KT P6SM VCSH BKN035
     FM230000 34006KT P6SM BKN060=

USA.gov is the U.S. government's official web portal to all federal, state and local government web resources and services.